Kunia, Hawaii
Current Conditions -  °F | °C
As of 6:58 PM on Friday 19 Dec 2014 (Local Time) from PHHI Reporting Station
Scattered Clouds Scattered Clouds  
Wind Chill: 73°   Ceiling: Unl
Heat Index: 73°   Visibility: 10mi
Dew Point: 65°   Wind: 2mph
Humidity: 77%   Direction: 150°SSE
Pressure: 30.05"   Gusts: NA
Location:  21.48°N, 158.07°W
Report Text: PHHI 200458Z AUTO 15002KT 10SM FEW026 SCT033 23/18 A3005 RMK AO2 SLP169 T02270184 $
Loading
Personal Weather Stations






























Interactive Weather Map New forecast layout! Learn more

10-Day Weather Forecast

Advertisements
Track Severe Weather on mobile